• Join FlightAware (Why Join?)
  • Login
  • US Flag 
05:41AM EDT


 

Airport Tracker/Info


-or-


 

Live Flight TrackerFlight Track Log ✈ EJA583 ✈ 17-Jul-2013 ✈ KOXR - KMTJ

Flight Track Log - Related Links

Times and Time Zones

All times are in EDT time to prevent confusion due to time zone crossing. See the EJA583 flight status page for this flight to view local times or setup timezone preferences in your user account.

Time Position Orientation Groundspeed Altitude Reporting Facility
EDT Latitude Longitude Course Direction KTS MPH feet Rate Location/Type
06:07PM 34.2022 -119.2206 282° West 147 169 1,000  Level Los Angeles Center
06:07PM 34.2103 -119.2672 282° West 199 229 2,700 3,000 Climbing Los Angeles Center
06:08PM 34.2047 -119.3344 264° West 232 267 5,900 3,360 Climbing Los Angeles Center
06:09PM 34.1906 -119.4178 258° West 249 287 9,300 3,000 Climbing Los Angeles Center
06:10PM 34.2367 -119.4381 340° North 260 299 12,200 2,640 Climbing Los Angeles Center
06:11PM 34.2669 -119.3586 65° Northeast 264 304 14,800 2,040 Climbing Los Angeles Center
06:12PM 34.3003 -119.2431 71° East 304 350 16,500 1,440 Climbing Los Angeles Center
06:13PM 34.3342 -119.1292 70° East 350 403 17,800 1,320 Climbing Los Angeles Center
06:15PM 34.3739 -118.9889 71° East 365 420 19,500 1,080 Climbing Los Angeles Center
06:16PM 34.4081 -118.8681 71° East 375 432 20,600 840 Climbing Los Angeles Center
06:17PM 34.4506 -118.7164 71° East 395 455 21,500 1,020 Climbing Los Angeles Center
06:18PM 34.4861 -118.5889 71° East 396 456 22,800 1,500 Climbing Los Angeles Center
06:19PM 34.5294 -118.4378 71° East 395 455 24,700 1,620 Climbing Los Angeles Center
06:20PM 34.5628 -118.3156 72° East 387 445 26,200 1,320 Climbing Los Angeles Center
06:21PM 34.5964 -118.1939 71° East 382 440 27,500 1,080 Climbing Los Angeles Center
06:22PM 34.6272 -118.0808 72° East 388 447 28,500 1,200 Climbing Los Angeles Center
06:23PM 34.6625 -117.9264 74° East 397 457 30,000 1,440 Climbing Los Angeles Center
06:24PM 34.6919 -117.7989 74° East 395 455 31,500 1,380 Climbing Los Angeles Center
06:25PM 34.7203 -117.6733 75° East 391 450 32,900 1,260 Climbing Los Angeles Center
06:26PM 34.7475 -117.5467 75° East 393 452 34,200 1,200 Climbing Los Angeles Center
06:27PM 34.7819 -117.3908 75° East 405 466 35,400 1,020 Climbing Los Angeles Center
06:28PM 34.8125 -117.2575 74° East 414 476 36,400 960 Climbing Los Angeles Center
06:29PM 34.8422 -117.1239 75° East 412 474 37,500 960 Climbing Los Angeles Center
06:30PM 34.8719 -116.9883 75° East 417 480 38,500 960 Climbing Los Angeles Center
06:31PM 34.9044 -116.8536 74° East 415 478 39,500 960 Climbing Los Angeles Center
06:32PM 34.9944 -116.7139 52° Northeast 442 509 40,500 720 Climbing Los Angeles Center
06:34PM 35.0764 -116.5992 49° Northeast 449 517 41,000 240 Climbing Los Angeles Center
06:35PM 35.1586 -116.4817 49° Northeast 454 522 41,000  Level Los Angeles Center
06:36PM 35.2411 -116.3653 49° Northeast 455 524 41,000  Level Los Angeles Center
06:37PM 35.3208 -116.2522 49° Northeast 449 517 41,000  Level Los Angeles Center
06:38PM 35.4144 -116.1181 49° Northeast 437 503 41,000  Level Los Angeles Center
06:39PM 35.4933 -116.0031 50° Northeast 440 506 41,000  Level Los Angeles Center
06:40PM 35.5733 -115.8894 49° Northeast 441 507 41,000  Level Los Angeles Center
06:41PM 35.6575 -115.7756 48° Northeast 439 505 41,000  Level Los Angeles Center
06:42PM 35.7372 -115.6594 50° Northeast 442 509 41,000  Level Los Angeles Center
06:43PM 35.8178 -115.5425 50° Northeast 447 514 41,000  Level Los Angeles Center
06:44PM 35.9125 -115.4017 50° Northeast 448 516 41,000  Level Los Angeles Center
06:45PM 35.9914 -115.2850 50° Northeast 447 514 41,000  Level Los Angeles Center
06:46PM 36.0692 -115.1700 50° Northeast 442 509 41,000  Level Los Angeles Center
06:47PM 36.1175 -115.0331 66° East 432 497 41,000  Level Los Angeles Center
06:48PM 36.1606 -114.8942 69° East 434 499 41,000  Level Los Angeles Center
06:49PM 36.2128 -114.7283 69° East 432 497 41,000  Level Los Angeles Center
06:50PM 36.2581 -114.5894 68° East 436 502 41,000  Level Los Angeles Center
06:51PM 36.3006 -114.4517 69° East 432 497 41,000  Level Los Angeles Center
06:52PM 36.3428 -114.3153 69° East 427 491 41,000  Level Los Angeles Center
06:53PM 36.3844 -114.1789 69° East 423 487 41,000  Level Los Angeles Center
06:54PM 36.4364 -114.0142 69° East 427 491 41,000  Level Los Angeles Center
06:55PM 36.4869 -113.8494 69° East 426 490 41,000  Level Los Angeles Center
06:56PM 36.5278 -113.7158 69° East 424 488 41,000  Level Los Angeles Center
06:58PM 36.5692 -113.5794 69° East 422 486 41,000  Level Los Angeles Center
06:59PM 36.6100 -113.4444 69° East 421 484 41,000  Level Los Angeles Center
07:00PM 36.6514 -113.3083 69° East 421 484 41,000  Level Los Angeles Center
07:01PM 36.7011 -113.1458 69° East 420 483 41,000  Level Los Angeles Center
07:02PM 36.7417 -113.0108 69° East 419 482 41,000  Level Los Angeles Center
07:03PM 36.7900 -112.8486 70° East 418 481 41,000  Level Los Angeles Center
07:04PM 36.8300 -112.7114 70° East 423 487 41,000  Level Los Angeles Center
07:05PM 36.8683 -112.5794 70° East 411 473 41,000  Level Los Angeles Center
07:06PM 36.9156 -112.4211 70° East 407 468 41,000  Level Los Angeles Center
07:07PM 36.9525 -112.2914 70° East 401 461 41,000  Level Los Angeles Center
07:08PM 36.9906 -112.1631 70° East 397 457 41,000  Level Los Angeles Center
07:09PM 37.0286 -112.0333 70° East 398 458 41,000  Level Los Angeles Center
07:10PM 37.0650 -111.9025 71° East 399 459 41,000  Level Los Angeles Center
07:11PM 37.1033 -111.7711 70° East 402 463 41,000  Level Los Angeles Center
07:12PM 37.1400 -111.6408 71° East 403 464 41,000  Level Denver Center
07:13PM 37.1764 -111.5100 71° East 401 461 41,000  Level Denver Center
07:14PM 37.2136 -111.3786 70° East 400 460 41,000  Level Denver Center
07:15PM 37.2506 -111.2483 70° East 399 459 41,000  Level Denver Center
07:16PM 37.2947 -111.0906 71° East 401 461 41,000  Level Denver Center
07:17PM 37.3303 -110.9606 71° East 397 457 41,000  Level Denver Center
07:18PM 37.3658 -110.8297 71° East 396 456 41,000  Level Denver Center
07:19PM 37.4025 -110.6989 71° East 398 458 41,000 -1,080 Level Denver Center
07:20PM 37.4378 -110.5675 71° East 396 456 38,800 -2,100 Descending Denver Center
07:21PM 37.4736 -110.4369 71° East 395 455 36,700 -1,680 Descending Denver Center
07:22PM 37.5122 -110.2978 71° East 381 438 35,400 -1,440 Descending Denver Center
07:23PM 37.5489 -110.1561 72° East 380 437 33,800 -1,500 Descending Denver Center
07:24PM 37.5817 -110.0347 71° East 381 438 32,400 -1,380 Descending Denver Center
07:25PM 37.6197 -109.8922 71° East 385 443 31,000 -1,260 Descending Denver Center
07:27PM 37.6547 -109.7633 71° East 401 461 29,800 -1,440 Descending Denver Center
07:28PM 37.6953 -109.6081 72° East 416 479 28,100 -1,500 Descending Denver Center
07:29PM 37.7300 -109.4739 72° East 419 482 26,700 -960 Descending Denver Center
07:30PM 37.7767 -109.2953 72° East 420 483 26,000 -600 Descending Denver Center
07:31PM 37.8114 -109.1625 72° East 416 479 25,400 -1,020 Descending Denver Center
07:32PM 37.8528 -109.0019 72° East 426 490 23,900 -1,380 Descending Denver Center
07:33PM 37.8858 -108.8683 73° East 419 482 22,600 -1,440 Descending Denver Center
07:34PM 37.9222 -108.7242 72° East 396 456 21,000 -1,560 Descending Denver Center
07:35PM 37.9539 -108.6011 72° East 387 445 19,400 -1,560 Descending Denver Center
07:36PM 38.0086 -108.5047 54° Northeast 362 417 17,800 -1,620 Descending Denver Center
07:37PM 38.0789 -108.4158 45° Northeast 310 357 16,100 -1,620 Descending Denver Center
07:38PM 38.1336 -108.3544 41° Northeast 285 328 14,500 -1,500 Descending Denver Center
07:39PM 38.2039 -108.2681 44° Northeast 306 352 13,000 -720 Descending Denver Center
07:40PM 38.2639 -108.1958 43° Northeast 311 358 13,000  Level Denver Center
07:41PM 38.3364 -108.1081 44° Northeast 315 362 13,000  Level Denver Center
07:42PM 38.4144 -108.0992 North 283 326 13,000  Level Denver Center
07:43PM 38.4831 -108.1061 355° North 258 297 13,000  Level Denver Center
07:44PM 38.5542 -108.1097 358° North 227 261 13,000 -1,320 Level Denver Center
07:45PM 38.5864 -108.0419 59° Northeast 251 289 10,300 -2,760 Descending Denver Center
07:46PM 38.5442 -107.9572 122° Southeast 287 330 7,400 -1,500 Descending Denver Center
07:47PM 38.4786 -107.9581 181° South 249 287 7,200 -120 Descending Denver Center
07:48PM 38.4492 -107.9286 142° Southeast 199 229 7,200 -360 Level Denver Center
07:49PM 38.4708 -107.8917 53° Northeast 171 197 6,500 -780 Descending Denver Center
07:51PM 38.5075 -107.8928 359° North 148 170 5,700 -780 Descending Denver Center